sensor_id;sensor_type;location;lat;lon;timestamp;P1;durP1;ratioP1;P2;durP2;ratioP2
11151;SDS011;5630;49.342;10.802;2023-09-18T00:00:23;7.07;;;6.47;;
11151;SDS011;5630;49.342;10.802;2023-09-18T00:02:48;6.70;;;6.10;;
11151;SDS011;5630;49.342;10.802;2023-09-18T00:05:14;6.63;;;5.83;;
11151;SDS011;5630;49.342;10.802;2023-09-18T00:07:41;7.10;;;6.50;;
11151;SDS011;5630;49.342;10.802;2023-09-18T00:10:08;6.83;;;6.23;;
11151;SDS011;5630;49.342;10.802;2023-09-18T00:12:35;6.87;;;6.27;;
11151;SDS011;5630;49.342;10.802;2023-09-18T00:15:00;6.93;;;6.33;;
11151;SDS011;5630;49.342;10.802;2023-09-18T00:17:26;6.83;;;6.13;;
11151;SDS011;5630;49.342;10.802;2023-09-18T00:19:51;6.97;;;6.33;;
11151;SDS011;5630;49.342;10.802;2023-09-18T00:22:18;7.57;;;6.87;;
11151;SDS011;5630;49.342;10.802;2023-09-18T00:24:44;7.33;;;6.70;;
11151;SDS011;5630;49.342;10.802;2023-09-18T00:27:09;7.70;;;6.87;;
11151;SDS011;5630;49.342;10.802;2023-09-18T00:29:36;7.10;;;6.50;;
11151;SDS011;5630;49.342;10.802;2023-09-18T00:32:02;7.40;;;6.80;;
11151;SDS011;5630;49.342;10.802;2023-09-18T00:34:28;7.37;;;6.10;;
11151;SDS011;5630;49.342;10.802;2023-09-18T00:36:54;7.77;;;6.97;;
11151;SDS011;5630;49.342;10.802;2023-09-18T00:39:20;7.30;;;6.53;;
11151;SDS011;5630;49.342;10.802;2023-09-18T00:41:45;7.73;;;6.90;;
11151;SDS011;5630;49.342;10.802;2023-09-18T00:44:14;7.40;;;6.00;;
11151;SDS011;5630;49.342;10.802;2023-09-18T00:46:40;6.97;;;6.37;;
11151;SDS011;5630;49.342;10.802;2023-09-18T00:49:05;7.40;;;6.73;;
11151;SDS011;5630;49.342;10.802;2023-09-18T00:51:31;7.27;;;6.67;;
11151;SDS011;5630;49.342;10.802;2023-09-18T00:53:57;7.17;;;6.40;;
11151;SDS011;5630;49.342;10.802;2023-09-18T00:56:24;7.13;;;6.53;;
11151;SDS011;5630;49.342;10.802;2023-09-18T00:58:50;8.57;;;6.50;;
11151;SDS011;5630;49.342;10.802;2023-09-18T01:01:17;7.33;;;6.53;;
11151;SDS011;5630;49.342;10.802;2023-09-18T01:03:48;6.83;;;6.23;;
11151;SDS011;5630;49.342;10.802;2023-09-18T01:06:15;7.30;;;6.60;;
11151;SDS011;5630;49.342;10.802;2023-09-18T01:08:41;8.07;;;7.37;;
11151;SDS011;5630;49.342;10.802;2023-09-18T01:11:10;7.27;;;6.57;;
11151;SDS011;5630;49.342;10.802;2023-09-18T01:13:51;7.47;;;6.80;;
11151;SDS011;5630;49.342;10.802;2023-09-18T01:16:41;6.60;;;6.10;;
11151;SDS011;5630;49.342;10.802;2023-09-18T01:19:15;7.33;;;6.73;;
11151;SDS011;5630;49.342;10.802;2023-09-18T01:21:41;7.50;;;6.80;;
11151;SDS011;5630;49.342;10.802;2023-09-18T01:24:06;7.50;;;6.90;;
11151;SDS011;5630;49.342;10.802;2023-09-18T01:26:32;7.03;;;6.43;;
11151;SDS011;5630;49.342;10.802;2023-09-18T01:28:57;8.97;;;6.33;;
11151;SDS011;5630;49.342;10.802;2023-09-18T01:31:23;7.20;;;6.50;;
11151;SDS011;5630;49.342;10.802;2023-09-18T01:33:51;6.80;;;6.20;;
11151;SDS011;5630;49.342;10.802;2023-09-18T01:36:17;8.00;;;6.03;;
11151;SDS011;5630;49.342;10.802;2023-09-18T01:38:44;7.10;;;6.50;;
11151;SDS011;5630;49.342;10.802;2023-09-18T01:41:11;6.90;;;6.30;;
11151;SDS011;5630;49.342;10.802;2023-09-18T01:43:37;6.80;;;6.20;;
11151;SDS011;5630;49.342;10.802;2023-09-18T01:46:03;6.97;;;6.37;;
11151;SDS011;5630;49.342;10.802;2023-09-18T01:48:29;7.13;;;6.50;;
11151;SDS011;5630;49.342;10.802;2023-09-18T01:50:55;6.90;;;6.30;;
11151;SDS011;5630;49.342;10.802;2023-09-18T01:53:20;6.47;;;5.93;;
11151;SDS011;5630;49.342;10.802;2023-09-18T01:55:46;7.07;;;6.37;;
11151;SDS011;5630;49.342;10.802;2023-09-18T01:58:12;6.67;;;6.07;;
11151;SDS011;5630;49.342;10.802;2023-09-18T02:00:39;6.80;;;6.20;;
11151;SDS011;5630;49.342;10.802;2023-09-18T02:03:05;6.87;;;6.27;;
11151;SDS011;5630;49.342;10.802;2023-09-18T02:05:30;6.90;;;6.27;;
11151;SDS011;5630;49.342;10.802;2023-09-18T02:07:56;6.70;;;6.20;;
11151;SDS011;5630;49.342;10.802;2023-09-18T02:10:21;6.90;;;6.27;;
11151;SDS011;5630;49.342;10.802;2023-09-18T02:12:47;7.00;;;6.40;;
11151;SDS011;5630;49.342;10.802;2023-09-18T02:15:12;7.20;;;6.57;;
11151;SDS011;5630;49.342;10.802;2023-09-18T02:17:38;6.97;;;6.37;;
11151;SDS011;5630;49.342;10.802;2023-09-18T02:20:04;7.47;;;6.60;;
11151;SDS011;5630;49.342;10.802;2023-09-18T02:22:36;10.03;;;6.00;;
11151;SDS011;5630;49.342;10.802;2023-09-18T02:25:03;7.37;;;6.37;;
11151;SDS011;5630;49.342;10.802;2023-09-18T02:27:29;7.10;;;6.50;;
11151;SDS011;5630;49.342;10.802;2023-09-18T02:29:55;7.03;;;6.43;;
11151;SDS011;5630;49.342;10.802;2023-09-18T02:32:20;7.00;;;6.40;;
11151;SDS011;5630;49.342;10.802;2023-09-18T02:34:46;7.47;;;6.10;;
11151;SDS011;5630;49.342;10.802;2023-09-18T02:37:11;8.00;;;7.20;;
11151;SDS011;5630;49.342;10.802;2023-09-18T02:39:37;7.50;;;6.90;;
11151;SDS011;5630;49.342;10.802;2023-09-18T02:42:02;7.13;;;6.53;;
11151;SDS011;5630;49.342;10.802;2023-09-18T02:44:28;6.47;;;5.93;;
11151;SDS011;5630;49.342;10.802;2023-09-18T02:46:54;7.43;;;6.73;;
11151;SDS011;5630;49.342;10.802;2023-09-18T02:49:19;6.87;;;6.30;;
11151;SDS011;5630;49.342;10.802;2023-09-18T02:51:45;7.00;;;6.40;;
11151;SDS011;5630;49.342;10.802;2023-09-18T02:54:11;7.60;;;6.90;;
11151;SDS011;5630;49.342;10.802;2023-09-18T02:56:36;7.93;;;6.47;;
11151;SDS011;5630;49.342;10.802;2023-09-18T02:59:03;7.23;;;6.53;;
11151;SDS011;5630;49.342;10.802;2023-09-18T03:01:28;6.87;;;6.37;;
11151;SDS011;5630;49.342;10.802;2023-09-18T03:03:54;8.10;;;6.40;;
11151;SDS011;5630;49.342;10.802;2023-09-18T03:06:19;6.80;;;6.20;;
11151;SDS011;5630;49.342;10.802;2023-09-18T03:08:45;7.50;;;6.80;;
11151;SDS011;5630;49.342;10.802;2023-09-18T03:11:11;6.80;;;6.20;;
11151;SDS011;5630;49.342;10.802;2023-09-18T03:13:42;6.73;;;6.13;;
11151;SDS011;5630;49.342;10.802;2023-09-18T03:16:11;8.10;;;6.30;;
11151;SDS011;5630;49.342;10.802;2023-09-18T03:18:37;7.80;;;6.60;;
11151;SDS011;5630;49.342;10.802;2023-09-18T03:21:02;7.20;;;6.50;;
11151;SDS011;5630;49.342;10.802;2023-09-18T03:23:29;6.90;;;6.30;;
11151;SDS011;5630;49.342;10.802;2023-09-18T03:25:54;7.23;;;6.63;;
11151;SDS011;5630;49.342;10.802;2023-09-18T03:28:20;7.60;;;6.93;;
11151;SDS011;5630;49.342;10.802;2023-09-18T03:30:46;7.20;;;6.50;;
11151;SDS011;5630;49.342;10.802;2023-09-18T03:33:11;6.97;;;6.43;;
11151;SDS011;5630;49.342;10.802;2023-09-18T03:35:49;7.67;;;6.97;;
11151;SDS011;5630;49.342;10.802;2023-09-18T03:38:16;9.90;;;6.90;;
11151;SDS011;5630;49.342;10.802;2023-09-18T03:40:42;7.63;;;6.93;;
11151;SDS011;5630;49.342;10.802;2023-09-18T03:43:09;6.93;;;6.33;;
11151;SDS011;5630;49.342;10.802;2023-09-18T03:45:35;7.73;;;6.93;;
11151;SDS011;5630;49.342;10.802;2023-09-18T03:48:00;6.97;;;6.37;;
11151;SDS011;5630;49.342;10.802;2023-09-18T03:50:26;9.47;;;6.23;;
11151;SDS011;5630;49.342;10.802;2023-09-18T03:52:52;7.37;;;6.67;;
11151;SDS011;5630;49.342;10.802;2023-09-18T03:55:18;7.67;;;6.33;;
11151;SDS011;5630;49.342;10.802;2023-09-18T03:57:43;7.43;;;6.60;;
11151;SDS011;5630;49.342;10.802;2023-09-18T04:00:11;6.87;;;6.30;;
11151;SDS011;5630;49.342;10.802;2023-09-18T04:02:37;7.63;;;6.93;;
11151;SDS011;5630;49.342;10.802;2023-09-18T04:05:03;7.80;;;7.03;;
11151;SDS011;5630;49.342;10.802;2023-09-18T04:07:29;7.33;;;6.73;;
11151;SDS011;5630;49.342;10.802;2023-09-18T04:09:56;6.70;;;6.10;;
11151;SDS011;5630;49.342;10.802;2023-09-18T04:12:21;8.00;;;7.30;;
11151;SDS011;5630;49.342;10.802;2023-09-18T04:14:47;8.83;;;7.30;;
11151;SDS011;5630;49.342;10.802;2023-09-18T04:17:13;7.20;;;6.57;;
11151;SDS011;5630;49.342;10.802;2023-09-18T04:19:38;6.90;;;6.30;;
11151;SDS011;5630;49.342;10.802;2023-09-18T04:22:04;7.40;;;6.70;;
11151;SDS011;5630;49.342;10.802;2023-09-18T04:24:30;7.60;;;6.90;;
11151;SDS011;5630;49.342;10.802;2023-09-18T04:26:55;7.37;;;6.67;;
11151;SDS011;5630;49.342;10.802;2023-09-18T04:29:21;7.80;;;7.07;;
11151;SDS011;5630;49.342;10.802;2023-09-18T04:31:46;7.47;;;6.83;;
11151;SDS011;5630;49.342;10.802;2023-09-18T04:34:13;7.10;;;6.40;;
11151;SDS011;5630;49.342;10.802;2023-09-18T04:36:39;7.67;;;6.87;;
11151;SDS011;5630;49.342;10.802;2023-09-18T04:39:05;7.50;;;6.80;;
11151;SDS011;5630;49.342;10.802;2023-09-18T04:41:31;7.17;;;6.50;;
11151;SDS011;5630;49.342;10.802;2023-09-18T04:43:57;7.67;;;6.90;;
11151;SDS011;5630;49.342;10.802;2023-09-18T04:46:23;7.27;;;6.57;;
11151;SDS011;5630;49.342;10.802;2023-09-18T04:48:49;7.77;;;7.07;;
11151;SDS011;5630;49.342;10.802;2023-09-18T04:51:15;7.50;;;6.90;;
11151;SDS011;5630;49.342;10.802;2023-09-18T04:53:41;7.57;;;6.97;;
11151;SDS011;5630;49.342;10.802;2023-09-18T04:56:07;6.93;;;6.33;;
11151;SDS011;5630;49.342;10.802;2023-09-18T04:58:35;7.30;;;6.63;;
11151;SDS011;5630;49.342;10.802;2023-09-18T05:01:02;6.90;;;6.17;;
11151;SDS011;5630;49.342;10.802;2023-09-18T05:03:30;7.47;;;6.77;;
11151;SDS011;5630;49.342;10.802;2023-09-18T05:05:58;6.87;;;6.30;;
11151;SDS011;5630;49.342;10.802;2023-09-18T05:08:24;6.93;;;6.33;;
11151;SDS011;5630;49.342;10.802;2023-09-18T05:10:50;7.10;;;6.50;;
11151;SDS011;5630;49.342;10.802;2023-09-18T05:13:15;8.40;;;7.40;;
11151;SDS011;5630;49.342;10.802;2023-09-18T05:15:41;7.17;;;6.47;;
11151;SDS011;5630;49.342;10.802;2023-09-18T05:18:07;9.07;;;6.40;;
11151;SDS011;5630;49.342;10.802;2023-09-18T05:20:33;7.40;;;6.57;;
11151;SDS011;5630;49.342;10.802;2023-09-18T05:22:59;7.00;;;6.40;;
11151;SDS011;5630;49.342;10.802;2023-09-18T05:25:26;6.87;;;6.27;;
11151;SDS011;5630;49.342;10.802;2023-09-18T05:27:54;7.20;;;6.60;;
11151;SDS011;5630;49.342;10.802;2023-09-18T05:30:25;7.13;;;6.47;;
11151;SDS011;5630;49.342;10.802;2023-09-18T05:32:59;7.93;;;6.10;;
11151;SDS011;5630;49.342;10.802;2023-09-18T05:35:39;7.40;;;6.70;;
11151;SDS011;5630;49.342;10.802;2023-09-18T05:38:06;7.30;;;6.70;;
11151;SDS011;5630;49.342;10.802;2023-09-18T05:40:31;7.27;;;6.57;;
11151;SDS011;5630;49.342;10.802;2023-09-18T05:42:57;9.07;;;7.20;;
11151;SDS011;5630;49.342;10.802;2023-09-18T05:45:23;7.60;;;6.80;;
11151;SDS011;5630;49.342;10.802;2023-09-18T05:47:49;7.07;;;6.40;;
11151;SDS011;5630;49.342;10.802;2023-09-18T05:50:15;7.57;;;6.77;;
11151;SDS011;5630;49.342;10.802;2023-09-18T05:52:47;7.57;;;6.87;;
11151;SDS011;5630;49.342;10.802;2023-09-18T05:55:14;7.03;;;6.30;;
11151;SDS011;5630;49.342;10.802;2023-09-18T05:57:40;7.93;;;6.57;;
11151;SDS011;5630;49.342;10.802;2023-09-18T06:00:06;8.03;;;7.23;;
11151;SDS011;5630;49.342;10.802;2023-09-18T06:02:32;8.77;;;7.17;;
11151;SDS011;5630;49.342;10.802;2023-09-18T06:04:59;7.43;;;6.67;;
11151;SDS011;5630;49.342;10.802;2023-09-18T06:07:26;8.23;;;7.00;;
11151;SDS011;5630;49.342;10.802;2023-09-18T06:09:52;7.43;;;6.67;;
11151;SDS011;5630;49.342;10.802;2023-09-18T06:12:19;9.10;;;7.07;;
11151;SDS011;5630;49.342;10.802;2023-09-18T06:14:45;11.03;;;7.23;;
11151;SDS011;5630;49.342;10.802;2023-09-18T06:17:12;7.50;;;6.70;;
11151;SDS011;5630;49.342;10.802;2023-09-18T06:19:39;8.40;;;7.00;;
11151;SDS011;5630;49.342;10.802;2023-09-18T06:22:08;9.70;;;6.70;;
11151;SDS011;5630;49.342;10.802;2023-09-18T06:24:34;7.40;;;6.70;;
11151;SDS011;5630;49.342;10.802;2023-09-18T06:27:00;7.13;;;6.53;;
11151;SDS011;5630;49.342;10.802;2023-09-18T06:29:26;8.43;;;6.80;;
11151;SDS011;5630;49.342;10.802;2023-09-18T06:31:51;7.37;;;6.30;;
11151;SDS011;5630;49.342;10.802;2023-09-18T06:34:17;8.67;;;7.40;;
11151;SDS011;5630;49.342;10.802;2023-09-18T06:36:42;7.70;;;6.90;;
11151;SDS011;5630;49.342;10.802;2023-09-18T06:39:08;6.90;;;6.30;;
11151;SDS011;5630;49.342;10.802;2023-09-18T06:41:34;8.13;;;6.87;;
11151;SDS011;5630;49.342;10.802;2023-09-18T06:44:00;7.77;;;6.97;;
11151;SDS011;5630;49.342;10.802;2023-09-18T06:46:29;7.63;;;6.40;;
11151;SDS011;5630;49.342;10.802;2023-09-18T06:48:55;7.00;;;6.40;;
11151;SDS011;5630;49.342;10.802;2023-09-18T06:51:21;7.27;;;6.53;;
11151;SDS011;5630;49.342;10.802;2023-09-18T06:53:47;9.13;;;6.13;;
11151;SDS011;5630;49.342;10.802;2023-09-18T06:56:12;7.93;;;6.77;;
11151;SDS011;5630;49.342;10.802;2023-09-18T06:58:38;8.63;;;6.60;;
11151;SDS011;5630;49.342;10.802;2023-09-18T07:01:03;6.80;;;6.20;;
11151;SDS011;5630;49.342;10.802;2023-09-18T07:03:31;9.27;;;6.93;;
11151;SDS011;5630;49.342;10.802;2023-09-18T07:05:59;7.63;;;6.57;;
11151;SDS011;5630;49.342;10.802;2023-09-18T07:08:25;7.67;;;6.87;;
11151;SDS011;5630;49.342;10.802;2023-09-18T07:10:50;7.07;;;6.37;;
11151;SDS011;5630;49.342;10.802;2023-09-18T07:13:16;7.43;;;6.73;;
11151;SDS011;5630;49.342;10.802;2023-09-18T07:15:42;6.80;;;6.10;;
11151;SDS011;5630;49.342;10.802;2023-09-18T07:18:09;10.43;;;6.40;;
11151;SDS011;5630;49.342;10.802;2023-09-18T07:20:39;8.73;;;6.43;;
11151;SDS011;5630;49.342;10.802;2023-09-18T07:23:08;6.50;;;5.90;;
11151;SDS011;5630;49.342;10.802;2023-09-18T07:25:34;10.13;;;6.10;;
11151;SDS011;5630;49.342;10.802;2023-09-18T07:27:59;6.77;;;6.07;;
11151;SDS011;5630;49.342;10.802;2023-09-18T07:30:25;6.00;;;5.30;;
11151;SDS011;5630;49.342;10.802;2023-09-18T07:32:54;9.20;;;5.70;;
11151;SDS011;5630;49.342;10.802;2023-09-18T07:35:23;7.70;;;5.23;;
11151;SDS011;5630;49.342;10.802;2023-09-18T07:37:49;7.77;;;5.60;;
11151;SDS011;5630;49.342;10.802;2023-09-18T07:40:14;7.43;;;5.47;;
11151;SDS011;5630;49.342;10.802;2023-09-18T07:42:43;6.67;;;5.00;;
11151;SDS011;5630;49.342;10.802;2023-09-18T07:45:10;6.43;;;5.70;;
11151;SDS011;5630;49.342;10.802;2023-09-18T07:47:36;7.57;;;5.07;;
11151;SDS011;5630;49.342;10.802;2023-09-18T07:50:01;8.90;;;5.57;;
11151;SDS011;5630;49.342;10.802;2023-09-18T07:52:27;8.90;;;5.90;;
11151;SDS011;5630;49.342;10.802;2023-09-18T07:54:54;11.07;;;5.37;;
11151;SDS011;5630;49.342;10.802;2023-09-18T07:57:19;8.07;;;5.27;;
11151;SDS011;5630;49.342;10.802;2023-09-18T07:59:47;6.00;;;5.40;;
11151;SDS011;5630;49.342;10.802;2023-09-18T08:02:13;7.73;;;4.97;;
11151;SDS011;5630;49.342;10.802;2023-09-18T08:04:39;10.00;;;5.10;;
11151;SDS011;5630;49.342;10.802;2023-09-18T08:07:04;7.20;;;5.17;;
11151;SDS011;5630;49.342;10.802;2023-09-18T08:09:33;6.00;;;4.70;;
11151;SDS011;5630;49.342;10.802;2023-09-18T08:12:01;8.70;;;4.30;;
11151;SDS011;5630;49.342;10.802;2023-09-18T08:14:30;8.23;;;4.40;;
11151;SDS011;5630;49.342;10.802;2023-09-18T08:16:56;8.60;;;4.63;;
11151;SDS011;5630;49.342;10.802;2023-09-18T08:19:23;7.90;;;4.40;;
11151;SDS011;5630;49.342;10.802;2023-09-18T08:21:51;8.80;;;4.50;;
11151;SDS011;5630;49.342;10.802;2023-09-18T08:24:19;8.30;;;4.50;;
11151;SDS011;5630;49.342;10.802;2023-09-18T08:26:44;9.63;;;4.50;;
11151;SDS011;5630;49.342;10.802;2023-09-18T08:29:10;8.33;;;5.30;;
11151;SDS011;5630;49.342;10.802;2023-09-18T08:31:35;8.73;;;5.30;;
11151;SDS011;5630;49.342;10.802;2023-09-18T08:34:01;7.53;;;4.50;;
11151;SDS011;5630;49.342;10.802;2023-09-18T08:36:26;9.33;;;4.60;;
11151;SDS011;5630;49.342;10.802;2023-09-18T08:38:55;10.77;;;4.80;;
11151;SDS011;5630;49.342;10.802;2023-09-18T08:41:21;9.63;;;5.00;;
11151;SDS011;5630;49.342;10.802;2023-09-18T08:43:51;7.83;;;4.30;;
11151;SDS011;5630;49.342;10.802;2023-09-18T08:46:21;8.93;;;3.97;;
11151;SDS011;5630;49.342;10.802;2023-09-18T08:48:47;11.77;;;3.90;;
11151;SDS011;5630;49.342;10.802;2023-09-18T08:51:14;10.00;;;3.57;;
11151;SDS011;5630;49.342;10.802;2023-09-18T08:53:43;8.17;;;3.77;;
11151;SDS011;5630;49.342;10.802;2023-09-18T08:56:09;10.07;;;4.10;;
11151;SDS011;5630;49.342;10.802;2023-09-18T08:58:36;6.77;;;3.83;;
11151;SDS011;5630;49.342;10.802;2023-09-18T09:01:04;7.80;;;3.80;;
11151;SDS011;5630;49.342;10.802;2023-09-18T09:03:34;7.03;;;3.77;;
11151;SDS011;5630;49.342;10.802;2023-09-18T09:06:04;10.47;;;3.77;;
11151;SDS011;5630;49.342;10.802;2023-09-18T09:08:31;6.67;;;3.47;;
11151;SDS011;5630;49.342;10.802;2023-09-18T09:10:56;11.50;;;3.77;;
11151;SDS011;5630;49.342;10.802;2023-09-18T09:13:23;6.17;;;3.10;;
11151;SDS011;5630;49.342;10.802;2023-09-18T09:15:51;10.87;;;3.70;;
11151;SDS011;5630;49.342;10.802;2023-09-18T09:18:20;6.13;;;3.37;;
11151;SDS011;5630;49.342;10.802;2023-09-18T09:20:56;8.00;;;2.93;;
11151;SDS011;5630;49.342;10.802;2023-09-18T09:23:45;8.97;;;3.43;;
11151;SDS011;5630;49.342;10.802;2023-09-18T09:26:18;9.70;;;3.50;;
11151;SDS011;5630;49.342;10.802;2023-09-18T09:28:46;7.50;;;2.87;;
11151;SDS011;5630;49.342;10.802;2023-09-18T09:31:22;8.03;;;3.10;;
11151;SDS011;5630;49.342;10.802;2023-09-18T09:33:50;7.10;;;2.60;;
11151;SDS011;5630;49.342;10.802;2023-09-18T09:36:18;11.67;;;2.53;;
11151;SDS011;5630;49.342;10.802;2023-09-18T09:38:44;7.10;;;2.60;;
11151;SDS011;5630;49.342;10.802;2023-09-18T09:41:13;8.97;;;2.33;;
11151;SDS011;5630;49.342;10.802;2023-09-18T09:43:41;5.73;;;2.53;;
11151;SDS011;5630;49.342;10.802;2023-09-18T09:46:07;6.47;;;2.40;;
11151;SDS011;5630;49.342;10.802;2023-09-18T09:48:57;7.33;;;2.47;;
11151;SDS011;5630;49.342;10.802;2023-09-18T09:51:24;9.20;;;2.70;;
11151;SDS011;5630;49.342;10.802;2023-09-18T09:53:49;10.50;;;2.90;;
11151;SDS011;5630;49.342;10.802;2023-09-18T09:56:16;11.13;;;2.80;;
11151;SDS011;5630;49.342;10.802;2023-09-18T09:59:08;8.73;;;2.50;;
11151;SDS011;5630;49.342;10.802;2023-09-18T10:01:36;10.73;;;2.53;;
11151;SDS011;5630;49.342;10.802;2023-09-18T10:04:04;8.17;;;2.43;;
11151;SDS011;5630;49.342;10.802;2023-09-18T10:06:34;10.27;;;2.70;;
11151;SDS011;5630;49.342;10.802;2023-09-18T10:09:04;8.73;;;2.90;;
11151;SDS011;5630;49.342;10.802;2023-09-18T10:11:33;5.70;;;2.50;;
11151;SDS011;5630;49.342;10.802;2023-09-18T10:14:47;6.83;;;2.20;;
11151;SDS011;5630;49.342;10.802;2023-09-18T10:16:54;8.00;;;2.70;;
11151;SDS011;5630;49.342;10.802;2023-09-18T10:19:25;9.63;;;2.23;;
11151;SDS011;5630;49.342;10.802;2023-09-18T10:24:53;5.33;;;2.50;;
11151;SDS011;5630;49.342;10.802;2023-09-18T10:27:22;10.67;;;2.60;;
11151;SDS011;5630;49.342;10.802;2023-09-18T10:29:51;9.53;;;2.70;;
11151;SDS011;5630;49.342;10.802;2023-09-18T10:32:19;9.33;;;2.10;;
11151;SDS011;5630;49.342;10.802;2023-09-18T10:34:46;8.40;;;2.60;;
11151;SDS011;5630;49.342;10.802;2023-09-18T10:37:13;8.20;;;2.17;;
11151;SDS011;5630;49.342;10.802;2023-09-18T10:39:41;7.63;;;2.37;;
11151;SDS011;5630;49.342;10.802;2023-09-18T10:42:08;7.80;;;2.10;;
11151;SDS011;5630;49.342;10.802;2023-09-18T10:44:35;6.43;;;2.07;;
11151;SDS011;5630;49.342;10.802;2023-09-18T10:47:02;12.50;;;2.70;;
11151;SDS011;5630;49.342;10.802;2023-09-18T10:49:33;8.63;;;2.17;;
11151;SDS011;5630;49.342;10.802;2023-09-18T10:52:00;6.07;;;2.00;;
11151;SDS011;5630;49.342;10.802;2023-09-18T10:54:27;3.60;;;1.87;;
11151;SDS011;5630;49.342;10.802;2023-09-18T10:56:55;3.67;;;1.70;;
11151;SDS011;5630;49.342;10.802;2023-09-18T10:59:22;7.20;;;1.93;;
11151;SDS011;5630;49.342;10.802;2023-09-18T11:01:48;7.33;;;1.80;;
11151;SDS011;5630;49.342;10.802;2023-09-18T11:04:13;6.40;;;2.00;;
11151;SDS011;5630;49.342;10.802;2023-09-18T11:09:25;4.30;;;1.73;;
11151;SDS011;5630;49.342;10.802;2023-09-18T11:11:52;3.63;;;1.83;;
11151;SDS011;5630;49.342;10.802;2023-09-18T11:14:48;4.07;;;1.90;;
11151;SDS011;5630;49.342;10.802;2023-09-18T11:17:37;5.47;;;1.80;;
11151;SDS011;5630;49.342;10.802;2023-09-18T11:22:36;8.20;;;1.80;;
11151;SDS011;5630;49.342;10.802;2023-09-18T11:27:59;7.23;;;2.20;;
11151;SDS011;5630;49.342;10.802;2023-09-18T11:30:26;8.93;;;2.10;;
11151;SDS011;5630;49.342;10.802;2023-09-18T11:32:53;6.87;;;2.17;;
11151;SDS011;5630;49.342;10.802;2023-09-18T11:35:20;4.87;;;2.10;;
11151;SDS011;5630;49.342;10.802;2023-09-18T11:37:46;5.13;;;1.90;;
11151;SDS011;5630;49.342;10.802;2023-09-18T11:40:31;6.70;;;2.13;;
11151;SDS011;5630;49.342;10.802;2023-09-18T11:43:22;5.27;;;1.97;;
11151;SDS011;5630;49.342;10.802;2023-09-18T11:45:50;5.37;;;2.07;;
11151;SDS011;5630;49.342;10.802;2023-09-18T11:48:18;5.80;;;1.50;;
11151;SDS011;5630;49.342;10.802;2023-09-18T11:50:43;5.63;;;2.10;;
11151;SDS011;5630;49.342;10.802;2023-09-18T11:53:10;4.93;;;1.70;;
11151;SDS011;5630;49.342;10.802;2023-09-18T11:55:38;3.77;;;1.70;;
11151;SDS011;5630;49.342;10.802;2023-09-18T11:58:05;5.77;;;1.50;;
11151;SDS011;5630;49.342;10.802;2023-09-18T12:00:34;3.30;;;1.70;;
11151;SDS011;5630;49.342;10.802;2023-09-18T12:03:17;4.43;;;1.60;;
11151;SDS011;5630;49.342;10.802;2023-09-18T12:05:59;3.53;;;1.83;;
11151;SDS011;5630;49.342;10.802;2023-09-18T12:08:30;4.87;;;1.70;;
11151;SDS011;5630;49.342;10.802;2023-09-18T12:10:56;4.97;;;1.80;;
11151;SDS011;5630;49.342;10.802;2023-09-18T12:13:22;1.90;;;1.40;;
11151;SDS011;5630;49.342;10.802;2023-09-18T12:15:52;4.47;;;1.77;;
11151;SDS011;5630;49.342;10.802;2023-09-18T12:18:25;3.03;;;1.37;;
11151;SDS011;5630;49.342;10.802;2023-09-18T12:20:53;3.87;;;1.70;;
11151;SDS011;5630;49.342;10.802;2023-09-18T12:23:24;3.13;;;1.40;;
11151;SDS011;5630;49.342;10.802;2023-09-18T12:25:50;8.33;;;2.07;;
11151;SDS011;5630;49.342;10.802;2023-09-18T12:28:23;5.43;;;1.70;;
11151;SDS011;5630;49.342;10.802;2023-09-18T12:30:53;8.43;;;2.00;;
11151;SDS011;5630;49.342;10.802;2023-09-18T12:33:21;2.70;;;1.67;;
11151;SDS011;5630;49.342;10.802;2023-09-18T12:35:50;2.67;;;1.67;;
11151;SDS011;5630;49.342;10.802;2023-09-18T12:38:17;5.27;;;2.30;;
11151;SDS011;5630;49.342;10.802;2023-09-18T12:40:50;4.07;;;1.70;;
11151;SDS011;5630;49.342;10.802;2023-09-18T12:43:16;7.70;;;2.10;;
11151;SDS011;5630;49.342;10.802;2023-09-18T12:45:43;4.97;;;1.90;;
11151;SDS011;5630;49.342;10.802;2023-09-18T12:48:09;8.37;;;2.20;;
11151;SDS011;5630;49.342;10.802;2023-09-18T12:50:35;4.73;;;1.93;;
11151;SDS011;5630;49.342;10.802;2023-09-18T12:55:34;5.50;;;1.90;;
11151;SDS011;5630;49.342;10.802;2023-09-18T12:58:00;4.40;;;2.10;;
11151;SDS011;5630;49.342;10.802;2023-09-18T13:00:30;5.50;;;1.70;;
11151;SDS011;5630;49.342;10.802;2023-09-18T13:02:56;5.37;;;2.10;;
11151;SDS011;5630;49.342;10.802;2023-09-18T13:05:22;6.17;;;1.67;;
11151;SDS011;5630;49.342;10.802;2023-09-18T13:07:52;3.53;;;1.60;;
11151;SDS011;5630;49.342;10.802;2023-09-18T13:10:19;6.83;;;2.23;;
11151;SDS011;5630;49.342;10.802;2023-09-18T13:12:47;5.90;;;1.93;;
11151;SDS011;5630;49.342;10.802;2023-09-18T13:15:24;5.60;;;1.87;;
11151;SDS011;5630;49.342;10.802;2023-09-18T13:17:53;8.83;;;2.27;;
11151;SDS011;5630;49.342;10.802;2023-09-18T13:20:21;10.30;;;2.73;;
11151;SDS011;5630;49.342;10.802;2023-09-18T13:22:50;9.93;;;2.87;;
11151;SDS011;5630;49.342;10.802;2023-09-18T13:25:23;8.87;;;3.07;;
11151;SDS011;5630;49.342;10.802;2023-09-18T13:27:53;7.60;;;2.80;;
11151;SDS011;5630;49.342;10.802;2023-09-18T13:30:19;9.70;;;2.70;;
11151;SDS011;5630;49.342;10.802;2023-09-18T13:32:47;7.87;;;3.27;;
11151;SDS011;5630;49.342;10.802;2023-09-18T13:35:13;9.60;;;3.37;;
11151;SDS011;5630;49.342;10.802;2023-09-18T13:37:39;5.47;;;2.27;;
11151;SDS011;5630;49.342;10.802;2023-09-18T13:40:05;6.60;;;2.00;;
11151;SDS011;5630;49.342;10.802;2023-09-18T13:42:32;6.70;;;2.10;;
11151;SDS011;5630;49.342;10.802;2023-09-18T13:44:58;8.43;;;2.33;;
11151;SDS011;5630;49.342;10.802;2023-09-18T13:47:29;12.63;;;2.47;;
11151;SDS011;5630;49.342;10.802;2023-09-18T13:49:55;8.30;;;2.17;;
11151;SDS011;5630;49.342;10.802;2023-09-18T13:52:27;8.33;;;2.33;;
11151;SDS011;5630;49.342;10.802;2023-09-18T13:54:57;4.73;;;2.10;;
11151;SDS011;5630;49.342;10.802;2023-09-18T13:57:23;9.87;;;2.23;;
11151;SDS011;5630;49.342;10.802;2023-09-18T14:03:00;4.57;;;1.77;;
11151;SDS011;5630;49.342;10.802;2023-09-18T14:05:27;4.63;;;1.80;;
11151;SDS011;5630;49.342;10.802;2023-09-18T14:07:54;3.73;;;1.67;;
11151;SDS011;5630;49.342;10.802;2023-09-18T14:10:25;6.47;;;1.87;;
11151;SDS011;5630;49.342;10.802;2023-09-18T14:12:51;5.07;;;2.10;;
11151;SDS011;5630;49.342;10.802;2023-09-18T14:15:17;6.70;;;1.77;;
11151;SDS011;5630;49.342;10.802;2023-09-18T14:17:43;4.83;;;2.20;;
11151;SDS011;5630;49.342;10.802;2023-09-18T14:20:09;3.47;;;1.80;;
11151;SDS011;5630;49.342;10.802;2023-09-18T14:22:35;5.80;;;2.10;;
11151;SDS011;5630;49.342;10.802;2023-09-18T14:25:01;5.93;;;1.70;;
11151;SDS011;5630;49.342;10.802;2023-09-18T14:27:33;5.23;;;1.90;;
11151;SDS011;5630;49.342;10.802;2023-09-18T14:30:00;4.47;;;1.90;;
11151;SDS011;5630;49.342;10.802;2023-09-18T14:32:30;5.97;;;1.87;;
11151;SDS011;5630;49.342;10.802;2023-09-18T14:34:56;3.43;;;1.90;;
11151;SDS011;5630;49.342;10.802;2023-09-18T14:37:23;5.63;;;1.80;;
11151;SDS011;5630;49.342;10.802;2023-09-18T14:39:49;4.33;;;1.80;;
11151;SDS011;5630;49.342;10.802;2023-09-18T14:42:14;4.77;;;2.03;;
11151;SDS011;5630;49.342;10.802;2023-09-18T14:44:40;6.90;;;2.00;;
11151;SDS011;5630;49.342;10.802;2023-09-18T14:47:09;2.00;;;1.50;;
11151;SDS011;5630;49.342;10.802;2023-09-18T14:49:36;8.07;;;2.17;;
11151;SDS011;5630;49.342;10.802;2023-09-18T14:52:02;4.57;;;1.70;;
11151;SDS011;5630;49.342;10.802;2023-09-18T14:54:28;4.37;;;1.77;;
11151;SDS011;5630;49.342;10.802;2023-09-18T14:56:54;3.93;;;1.80;;
11151;SDS011;5630;49.342;10.802;2023-09-18T14:59:19;2.03;;;1.50;;
11151;SDS011;5630;49.342;10.802;2023-09-18T15:01:45;5.60;;;2.20;;
11151;SDS011;5630;49.342;10.802;2023-09-18T15:04:12;3.20;;;1.83;;
11151;SDS011;5630;49.342;10.802;2023-09-18T15:06:38;6.47;;;1.90;;